Time;durP1;ratioP1;P1;durP2;ratioP2;P2;SDS_P1;SDS_P2;PMS_P1;PMS_P2;Temp;Humidity;BMP_temperature;BMP_pressure;BME280_temperature;BME280_humidity;BME280_pressure;Samples;Min_cycle;Max_cycle;Signal;HPM_P1;HPM_P2
2022/03/27 00:02:19;;;;;;;0.95;0.73;;;;;;;-1.89;67.35;97146.28;4915478;29;20535;-62
2022/03/27 00:04:47;;;;;;;1.38;0.90;;;;;;;-1.90;67.04;97144.69;4915401;29;20063;-62
2022/03/27 00:07:14;;;;;;;1.25;0.80;;;;;;;-1.83;67.56;97154.31;4915442;29;20052;-63
2022/03/27 00:09:41;;;;;;;3.03;0.77;;;;;;;-1.78;67.23;97146.03;4915524;29;20044;-62
2022/03/27 00:12:09;;;;;;;0.68;0.60;;;;;;;-1.70;66.30;97151.53;4915265;29;20064;-62
2022/03/27 00:14:36;;;;;;;2.10;1.10;;;;;;;-1.65;66.10;97147.84;4915772;29;20056;-61
2022/03/27 00:17:05;;;;;;;4.03;1.00;;;;;;;-1.59;66.26;97149.34;4915762;29;20415;-61
2022/03/27 00:19:32;;;;;;;1.30;0.80;;;;;;;-1.51;66.18;97152.09;4915642;29;20405;-61
2022/03/27 00:21:59;;;;;;;1.90;0.75;;;;;;;-1.40;66.10;97147.97;4915326;29;20066;-61
2022/03/27 00:24:27;;;;;;;1.80;0.85;;;;;;;-1.43;65.19;97153.25;4911917;29;20524;-62
2022/03/27 00:26:54;;;;;;;1.05;0.80;;;;;;;-1.51;65.22;97146.66;4915389;29;20103;-61
2022/03/27 00:29:22;;;;;;;1.02;0.65;;;;;;;-1.56;65.20;97152.25;4915326;29;20083;-62
2022/03/27 00:31:49;;;;;;;1.95;1.00;;;;;;;-1.52;65.24;97144.22;4914214;29;20070;-61
2022/03/27 00:34:18;;;;;;;1.15;0.90;;;;;;;-1.44;65.94;97148.94;4914926;29;20082;-61
2022/03/27 00:36:46;;;;;;;1.65;1.00;;;;;;;-1.49;65.21;97144.41;4915483;29;20411;-63
2022/03/27 00:39:13;;;;;;;1.60;0.77;;;;;;;-1.58;65.98;97161.84;4915106;29;20059;-61
2022/03/27 00:41:40;;;;;;;2.30;1.25;;;;;;;-1.67;65.46;97158.25;4915507;29;20062;-62
2022/03/27 00:44:07;;;;;;;0.85;0.77;;;;;;;-1.72;65.88;97164.66;4914802;29;20066;-63
2022/03/27 00:46:34;;;;;;;1.77;0.98;;;;;;;-1.77;66.32;97158.53;4914015;29;20099;-63
2022/03/27 00:49:01;;;;;;;1.23;0.80;;;;;;;-1.74;66.80;97169.63;4917158;29;20048;-63
2022/03/27 00:51:28;;;;;;;0.82;0.65;;;;;;;-1.78;66.99;97167.84;4918972;29;20397;-63
2022/03/27 00:53:55;;;;;;;1.77;0.88;;;;;;;-1.79;67.12;97172.47;4918492;29;20083;-64
2022/03/27 00:56:22;;;;;;;1.23;0.88;;;;;;;-1.79;67.75;97160.75;4918958;29;20151;-64
2022/03/27 00:58:49;;;;;;;2.90;1.00;;;;;;;-1.91;67.45;97164.88;4918312;29;20044;-64
2022/03/27 01:01:24;;;;;;;1.42;0.93;;;;;;;-1.93;68.46;97172.53;4919177;29;20448;-62
2022/03/27 01:03:53;;;;;;;0.77;0.70;;;;;;;-1.94;68.22;97183.75;4918656;29;20048;-62
2022/03/27 01:06:41;;;;;;;0.73;0.68;;;;;;;-1.93;69.04;97188.06;4918531;29;20106;-61
2022/03/27 01:12:14;;;;;;;6.03;0.98;;;;;;;-2.11;69.90;97181.69;4918363;29;20044;-62
2022/03/27 01:14:41;;;;;;;1.80;1.00;;;;;;;-2.14;69.95;97195.94;4914756;29;20498;-62
2022/03/27 01:17:13;;;;;;;3.45;0.88;;;;;;;-2.17;70.28;97185.66;4918537;29;20551;-62
2022/03/27 01:19:46;;;;;;;1.23;0.80;;;;;;;-2.08;70.41;97189.25;4915496;29;20052;-62
2022/03/27 01:22:14;;;;;;;1.13;0.80;;;;;;;-2.03;70.81;97191.06;4917763;29;20134;-61
2022/03/27 01:24:41;;;;;;;2.08;1.00;;;;;;;-2.06;70.13;97188.94;4915472;29;20108;-61
2022/03/27 01:27:09;;;;;;;3.80;0.90;;;;;;;-2.05;70.69;97193.25;4917764;29;20052;-62
2022/03/27 01:29:36;;;;;;;0.85;0.68;;;;;;;-2.07;70.50;97204.47;4918144;29;20160;-62
2022/03/27 01:32:05;;;;;;;1.08;0.70;;;;;;;-2.10;70.97;97194.19;4917915;29;20052;-62
2022/03/27 01:34:32;;;;;;;4.43;1.08;;;;;;;-2.04;70.51;97194.91;4900195;29;20052;-61
2022/03/27 01:37:07;;;;;;;0.80;0.70;;;;;;;-2.00;70.39;97199.41;4918315;29;20415;-61
2022/03/27 01:39:36;;;;;;;1.20;0.75;;;;;;;-2.13;70.32;97200.25;4918025;29;20059;-62
2022/03/27 01:42:05;;;;;;;2.15;0.85;;;;;;;-2.20;71.22;97205.34;4916719;29;20047;-62
2022/03/27 01:44:32;;;;;;;0.75;0.70;;;;;;;-2.16;71.06;97206.31;4917439;29;20090;-61
2022/03/27 01:46:59;;;;;;;1.33;0.93;;;;;;;-2.23;71.29;97211.41;4917741;29;20063;-61
2022/03/27 01:49:26;;;;;;;1.80;1.13;;;;;;;-2.20;71.00;97221.66;4917265;29;20144;-62
2022/03/27 01:51:54;;;;;;;2.70;0.70;;;;;;;-2.22;71.62;97213.00;4918062;29;20064;-61
2022/03/27 01:54:22;;;;;;;1.48;0.90;;;;;;;-2.19;71.75;97228.72;4917306;29;20162;-62
2022/03/27 01:56:49;;;;;;;5.78;1.10;;;;;;;-2.24;70.95;97220.69;4918006;29;20062;-62
2022/03/27 01:59:19;;;;;;;2.78;1.33;;;;;;;-2.22;72.46;97218.44;4917250;29;20148;-61
2022/03/27 02:01:46;;;;;;;2.00;1.20;;;;;;;-2.35;72.16;97238.34;4918015;29;20116;-61
2022/03/27 02:04:13;;;;;;;1.25;0.90;;;;;;;-2.37;72.54;97232.41;4916929;29;20052;-61
2022/03/27 02:06:40;;;;;;;1.77;1.00;;;;;;;-2.42;72.39;97229.81;4917951;29;20055;-62
2022/03/27 02:09:07;;;;;;;2.38;0.82;;;;;;;-2.50;71.94;97237.88;4917079;29;20071;-61
2022/03/27 02:11:34;;;;;;;1.88;0.80;;;;;;;-2.52;72.43;97243.63;4917440;29;20406;-62
2022/03/27 02:14:01;;;;;;;3.03;0.73;;;;;;;-2.49;72.51;97234.84;4917025;29;20104;-61
2022/03/27 02:16:28;;;;;;;1.35;0.73;;;;;;;-2.41;71.54;97236.84;4917753;29;20060;-61
2022/03/27 02:18:55;;;;;;;3.53;0.70;;;;;;;-2.35;72.42;97251.97;4913260;29;20056;-61
2022/03/27 02:21:23;;;;;;;2.17;0.82;;;;;;;-2.33;72.32;97243.50;4917220;29;20052;-61
2022/03/27 02:23:50;;;;;;;2.70;0.85;;;;;;;-2.32;72.30;97237.75;4917153;29;20111;-62
2022/03/27 02:26:17;;;;;;;1.77;0.70;;;;;;;-2.37;72.46;97245.22;4917385;29;20051;-62
2022/03/27 02:28:44;;;;;;;6.20;0.80;;;;;;;-2.40;72.09;97249.34;4917660;29;20143;-62
2022/03/27 02:31:11;;;;;;;2.88;0.60;;;;;;;-2.43;73.18;97249.16;4915532;29;20059;-61
2022/03/27 02:33:38;;;;;;;3.65;1.02;;;;;;;-2.45;73.25;97252.19;4917485;29;20056;-61
2022/03/27 02:36:08;;;;;;;2.03;0.90;;;;;;;-2.49;73.36;97253.91;4915267;29;20079;-62
2022/03/27 02:38:36;;;;;;;6.18;0.90;;;;;;;-2.49;73.97;97250.38;4917250;29;20460;-62
2022/03/27 02:41:04;;;;;;;0.90;0.68;;;;;;;-2.54;73.93;97264.91;4915192;29;20052;-62
2022/03/27 02:43:31;;;;;;;0.80;0.60;;;;;;;-2.54;73.93;97254.03;4916801;29;20056;-62
2022/03/27 02:45:58;;;;;;;1.20;0.55;;;;;;;-2.55;74.24;97274.16;4916580;29;20076;-62
2022/03/27 02:48:26;;;;;;;1.27;0.70;;;;;;;-2.59;74.80;97275.06;4916993;29;20578;-62
2022/03/27 02:50:53;;;;;;;0.63;0.50;;;;;;;-2.63;74.84;97271.34;4916123;29;20048;-62
2022/03/27 02:53:20;;;;;;;1.13;0.60;;;;;;;-2.61;75.17;97274.56;4915427;29;20051;-61
2022/03/27 02:55:48;;;;;;;5.70;0.60;;;;;;;-2.60;75.88;97282.41;4916199;29;20076;-64
2022/03/27 02:58:15;;;;;;;0.60;0.60;;;;;;;-2.62;75.21;97289.28;4913282;29;20646;-64
2022/03/27 03:00:42;;;;;;;0.60;0.52;;;;;;;-2.65;75.12;97285.25;4916100;29;20072;-63
2022/03/27 03:03:10;;;;;;;1.10;0.60;;;;;;;-2.63;75.17;97299.34;4916659;29;20059;-63
2022/03/27 03:05:41;;;;;;;0.98;0.50;;;;;;;-2.62;75.43;97294.72;4916472;29;20135;-64
2022/03/27 03:08:12;;;;;;;1.02;0.63;;;;;;;-2.67;75.00;97292.91;4915686;29;20419;-64
2022/03/27 03:10:40;;;;;;;1.33;0.82;;;;;;;-2.67;74.64;97298.34;4915571;29;20052;-64
2022/03/27 03:13:08;;;;;;;0.80;0.60;;;;;;;-2.67;75.07;97309.25;4916314;29;20059;-64
2022/03/27 03:15:37;;;;;;;1.10;0.88;;;;;;;-2.66;75.52;97302.69;4916206;29;20064;-64
2022/03/27 03:18:05;;;;;;;0.40;0.40;;;;;;;-2.60;75.17;97309.63;4916376;29;20077;-65
2022/03/27 03:20:33;;;;;;;1.23;0.80;;;;;;;-2.63;74.46;97306.72;4916423;29;20055;-63
2022/03/27 03:23:05;;;;;;;0.75;0.70;;;;;;;-2.62;74.28;97303.69;4913792;29;20056;-63
2022/03/27 03:25:32;;;;;;;1.05;0.70;;;;;;;-2.70;74.42;97303.59;4909563;29;20078;-64
2022/03/27 03:28:19;;;;;;;0.50;0.50;;;;;;;-2.84;73.94;97325.34;4916195;29;20520;-64
2022/03/27 03:30:46;;;;;;;1.30;0.70;;;;;;;-2.92;74.45;97314.34;4915603;29;20103;-63
2022/03/27 03:33:13;;;;;;;0.80;0.50;;;;;;;-3.01;73.94;97354.22;4915901;29;20056;-64
2022/03/27 03:35:41;;;;;;;1.80;0.55;;;;;;;-3.11;75.87;97335.38;4916139;29;20516;-63
2022/03/27 03:38:09;;;;;;;0.65;0.60;;;;;;;-3.07;75.81;97358.97;4916600;29;20094;-64
2022/03/27 03:40:37;;;;;;;1.48;0.45;;;;;;;-3.07;75.36;97372.56;4916041;29;20090;-63
2022/03/27 03:43:05;;;;;;;0.60;0.60;;;;;;;-3.11;74.30;97379.69;4915875;29;20485;-63
2022/03/27 03:45:32;;;;;;;0.95;0.60;;;;;;;-3.17;73.87;97371.94;4915713;29;20063;-64
2022/03/27 03:47:59;;;;;;;1.85;0.70;;;;;;;-3.19;73.29;97382.28;4915573;29;20099;-63
2022/03/27 03:50:27;;;;;;;0.93;0.73;;;;;;;-3.25;72.63;97372.59;4915671;29;20147;-64
2022/03/27 03:52:54;;;;;;;1.10;0.77;;;;;;;-3.31;72.42;97385.47;4913924;29;20099;-63
2022/03/27 03:55:22;;;;;;;1.70;0.90;;;;;;;-3.26;72.77;97366.34;4915805;29;20101;-64
2022/03/27 03:57:48;;;;;;;0.68;0.60;;;;;;;-3.36;71.92;97374.66;4915381;29;20130;-64
2022/03/27 04:00:16;;;;;;;1.00;0.70;;;;;;;-3.40;72.80;97370.94;4915789;29;20485;-64
2022/03/27 04:02:43;;;;;;;1.75;0.70;;;;;;;-3.40;73.18;97411.72;4915463;29;20067;-62
2022/03/27 04:05:11;;;;;;;0.50;0.50;;;;;;;-3.35;71.93;97406.16;4915945;29;20551;-64
2022/03/27 04:07:38;;;;;;;2.58;0.47;;;;;;;-3.33;73.21;97433.88;4915494;29;20055;-63
2022/03/27 04:10:05;;;;;;;0.35;0.35;;;;;;;-3.24;71.63;97414.97;4910854;29;20142;-63
2022/03/27 04:12:32;;;;;;;4.82;0.98;;;;;;;-3.23;70.44;97425.53;4915787;29;20563;-63
2022/03/27 04:15:00;;;;;;;1.27;0.50;;;;;;;-3.19;69.69;97431.22;4914464;29;20418;-63
2022/03/27 04:17:29;;;;;;;1.77;0.70;;;;;;;-3.12;69.99;97442.50;4915783;29;20056;-64
2022/03/27 04:19:56;;;;;;;2.03;0.70;;;;;;;-3.06;68.57;97433.16;4915158;29;20143;-62
2022/03/27 04:22:23;;;;;;;1.77;0.70;;;;;;;-3.05;68.19;97443.75;4915856;29;20071;-61
2022/03/27 04:24:50;;;;;;;0.93;0.52;;;;;;;-3.05;67.54;97435.59;4914584;29;20531;-62
2022/03/27 04:27:18;;;;;;;1.77;1.02;;;;;;;-3.20;68.81;97463.03;4919186;29;20079;-62
2022/03/27 04:29:46;;;;;;;0.30;0.30;;;;;;;-3.23;71.81;97468.25;4918773;29;20055;-61
2022/03/27 04:32:13;;;;;;;0.45;0.40;;;;;;;-3.34;70.24;97461.34;4919917;29;20044;-61
2022/03/27 04:34:39;;;;;;;1.95;1.17;;;;;;;-3.37;69.75;97446.44;4918737;29;20167;-61
2022/03/27 04:37:06;;;;;;;1.17;0.50;;;;;;;-3.41;70.76;97483.44;4919330;29;20083;-62
2022/03/27 04:39:33;;;;;;;4.05;0.80;;;;;;;-3.37;71.04;97494.53;4918816;29;20151;-63
2022/03/27 04:42:00;;;;;;;1.00;0.88;;;;;;;-3.42;69.66;97481.84;4919415;29;20051;-62
2022/03/27 04:44:27;;;;;;;2.00;0.70;;;;;;;-3.49;70.28;97481.41;4918301;29;20098;-61
2022/03/27 04:46:54;;;;;;;12.90;1.00;;;;;;;-3.48;70.17;97509.38;4919056;29;20055;-62
2022/03/27 04:49:21;;;;;;;0.80;0.55;;;;;;;-3.47;67.95;97500.91;4918671;29;20055;-62
2022/03/27 04:51:49;;;;;;;3.13;0.55;;;;;;;-3.52;67.38;97505.63;4918959;29;20048;-61
2022/03/27 04:54:16;;;;;;;0.52;0.50;;;;;;;-3.53;70.61;97496.66;4919143;29;20059;-62
2022/03/27 04:56:46;;;;;;;2.42;0.65;;;;;;;-3.45;70.71;97509.59;4918622;29;20067;-61
2022/03/27 04:59:13;;;;;;;0.85;0.60;;;;;;;-3.40;70.96;97534.00;4918847;29;20476;-62
2022/03/27 05:01:41;;;;;;;1.10;0.70;;;;;;;-3.25;72.76;97531.06;4918434;29;20139;-62
2022/03/27 05:04:09;;;;;;;1.70;0.60;;;;;;;-3.31;70.64;97554.00;4917665;29;20051;-62
2022/03/27 05:06:36;;;;;;;0.40;0.40;;;;;;;-3.23;71.55;97545.16;4918474;29;20063;-61
2022/03/27 05:09:03;;;;;;;1.85;0.77;;;;;;;-3.07;71.97;97537.59;4918936;29;20052;-62
2022/03/27 05:11:30;;;;;;;5.22;0.80;;;;;;;-2.88;69.90;97562.88;4918147;29;20591;-61
2022/03/27 05:13:57;;;;;;;0.80;0.50;;;;;;;-2.83;69.33;97552.75;4918441;29;20155;-61
2022/03/27 05:16:24;;;;;;;0.77;0.40;;;;;;;-2.74;68.07;97561.84;4916642;29;20060;-62
2022/03/27 05:18:51;;;;;;;2.25;0.82;;;;;;;-2.75;66.15;97573.81;4918532;29;20095;-63
2022/03/27 05:21:20;;;;;;;1.02;0.55;;;;;;;-2.74;65.67;97571.91;4918108;29;20048;-63
2022/03/27 05:23:47;;;;;;;1.40;0.80;;;;;;;-2.55;65.40;97584.41;4918207;29;20047;-63
2022/03/27 05:26:14;;;;;;;0.80;0.60;;;;;;;-2.30;63.19;97580.47;4918339;29;20544;-64
2022/03/27 05:28:41;;;;;;;3.17;0.60;;;;;;;-2.54;63.45;97569.72;4918525;29;20079;-63
2022/03/27 05:31:09;;;;;;;2.45;0.70;;;;;;;-2.68;64.08;97589.78;4917892;29;20052;-63
2022/03/27 05:33:37;;;;;;;2.47;0.65;;;;;;;-2.50;62.91;97581.59;4917282;29;20431;-63
2022/03/27 05:36:07;;;;;;;0.85;0.75;;;;;;;-2.15;61.32;97566.59;4913735;29;20048;-63
2022/03/27 05:38:37;;;;;;;0.68;0.52;;;;;;;-2.00;63.07;97601.72;4917196;29;20130;-63
2022/03/27 05:41:06;;;;;;;0.82;0.70;;;;;;;-2.03;64.90;97605.06;4918085;29;20059;-64
2022/03/27 05:43:34;;;;;;;2.22;0.90;;;;;;;-1.89;62.98;97603.97;4917888;29;20067;-64
2022/03/27 05:46:02;;;;;;;2.20;1.00;;;;;;;-1.97;61.42;97585.59;4918083;29;20075;-63
2022/03/27 05:48:34;;;;;;;5.80;1.00;;;;;;;-1.73;60.35;97611.84;4917601;29;20079;-64
2022/03/27 05:51:02;;;;;;;1.33;0.75;;;;;;;-1.47;59.32;97605.63;4917069;29;20058;-63
2022/03/27 05:53:30;;;;;;;0.85;0.77;;;;;;;-1.33;57.65;97589.28;4917235;29;20092;-64
2022/03/27 05:55:59;;;;;;;1.15;0.82;;;;;;;-1.62;58.71;97624.19;4917886;29;20147;-63
2022/03/27 05:58:26;;;;;;;3.95;0.90;;;;;;;-1.88;58.15;97615.69;4917425;29;20056;-63
2022/03/27 06:00:53;;;;;;;0.98;0.70;;;;;;;-2.14;59.50;97598.97;4917901;29;20048;-61
2022/03/27 06:03:20;;;;;;;1.00;0.60;;;;;;;-2.45;58.83;97607.94;4917022;29;20067;-63
2022/03/27 06:05:47;;;;;;;3.67;1.02;;;;;;;-2.53;60.43;97616.75;4917601;29;20534;-62
2022/03/27 06:08:14;;;;;;;1.15;0.77;;;;;;;-2.49;60.97;97632.22;4917621;29;20082;-62
2022/03/27 06:10:41;;;;;;;1.70;0.90;;;;;;;-2.40;60.95;97616.81;4917387;29;20047;-62
2022/03/27 06:13:10;;;;;;;3.75;1.10;;;;;;;-2.47;61.86;97624.56;4917290;29;20556;-62
2022/03/27 06:15:37;;;;;;;3.72;0.73;;;;;;;-2.66;62.67;97658.34;4917296;29;20052;-63
2022/03/27 06:18:09;;;;;;;2.47;0.70;;;;;;;-2.79;65.02;97659.03;4917038;29;20052;-61
2022/03/27 06:20:38;;;;;;;6.40;0.93;;;;;;;-2.78;64.09;97666.91;4917306;29;20503;-63
2022/03/27 06:23:06;;;;;;;1.08;0.70;;;;;;;-2.76;64.32;97662.00;4917063;29;20081;-62
2022/03/27 06:25:34;;;;;;;1.50;0.93;;;;;;;-2.56;63.25;97664.44;4918019;29;20059;-62
2022/03/27 06:28:01;;;;;;;3.35;0.70;;;;;;;-2.47;62.14;97662.66;4913734;29;20116;-62
2022/03/27 06:30:30;;;;;;;1.40;0.82;;;;;;;-2.58;61.18;97663.09;4917363;29;20044;-62
2022/03/27 06:32:59;;;;;;;1.13;0.90;;;;;;;-2.62;60.94;97678.41;4916828;29;20424;-62
2022/03/27 06:35:27;;;;;;;3.25;1.05;;;;;;;-2.74;59.86;97683.47;4917038;29;20056;-62
2022/03/27 06:37:54;;;;;;;1.38;0.90;;;;;;;-2.73;60.53;97702.22;4917019;29;20071;-61
2022/03/27 06:40:21;;;;;;;0.82;0.70;;;;;;;-2.69;59.38;97697.81;4916538;29;20055;-62
2022/03/27 06:42:49;;;;;;;0.50;0.50;;;;;;;-2.93;59.43;97697.03;4916895;29;20051;-62
2022/03/27 06:45:17;;;;;;;2.25;0.70;;;;;;;-3.08;60.24;97710.81;4915563;29;20064;-63
2022/03/27 06:47:46;;;;;;;2.45;0.90;;;;;;;-3.23;61.58;97719.16;4916848;29;20060;-62
2022/03/27 06:50:14;;;;;;;1.10;0.68;;;;;;;-3.29;62.39;97742.03;4911682;29;20077;-63
2022/03/27 06:52:42;;;;;;;5.15;0.73;;;;;;;-3.12;62.42;97714.41;4908983;29;20052;-63
2022/03/27 06:55:10;;;;;;;5.07;0.82;;;;;;;-3.05;64.51;97742.06;4915992;29;20055;-62
2022/03/27 06:57:38;;;;;;;1.08;0.80;;;;;;;-2.89;64.90;97765.28;4915785;29;20054;-62
2022/03/27 07:03:02;;;;;;;14.52;1.20;;;;;;;-2.01;64.80;97755.38;4917199;29;20147;-63
2022/03/27 07:05:32;;;;;;;0.60;0.60;;;;;;;-1.83;66.50;97756.47;4916435;29;20055;-63
2022/03/27 07:08:04;;;;;;;1.75;0.77;;;;;;;-1.84;65.09;97773.94;4916613;29;20130;-62
2022/03/27 07:10:31;;;;;;;1.60;0.90;;;;;;;-1.79;66.72;97760.22;4916348;29;20143;-62
2022/03/27 07:12:58;;;;;;;1.67;1.17;;;;;;;-1.05;66.34;97771.75;4916336;29;20155;-63
2022/03/27 07:15:26;;;;;;;2.60;1.50;;;;;;;0.09;64.15;97752.44;4916247;29;20500;-64
2022/03/27 07:17:53;;;;;;;1.60;1.00;;;;;;;0.23;58.50;97780.53;4916473;29;20043;-64
2022/03/27 07:20:26;;;;;;;1.52;0.90;;;;;;;-0.23;57.89;97778.78;4914690;29;20056;-64
2022/03/27 07:22:57;;;;;;;2.17;1.00;;;;;;;-1.44;59.17;97767.81;4915601;29;20052;-64
2022/03/27 07:25:24;;;;;;;;;;;;;;;-2.06;60.31;97805.31;4916059;29;20130;-63
2022/03/27 07:27:52;;;;;;;9.93;0.90;;;;;;;-2.01;59.54;97779.91;4916175;29;19927;-64
2022/03/27 07:30:20;;;;;;;0.70;0.68;;;;;;;-1.91;59.35;97791.47;4915782;29;20397;-65
2022/03/27 07:32:48;;;;;;;1.67;0.93;;;;;;;-2.33;59.55;97810.56;4916261;29;20052;-64
2022/03/27 07:35:15;;;;;;;2.13;1.10;;;;;;;-2.55;60.80;97817.66;4915722;29;20190;-64
2022/03/27 07:37:43;;;;;;;1.52;0.98;;;;;;;-2.54;61.09;97809.22;4916372;29;20139;-64
2022/03/27 07:40:13;;;;;;;1.30;1.10;;;;;;;-2.25;59.25;97828.19;4914284;29;20055;-64
2022/03/27 07:42:46;;;;;;;4.45;1.00;;;;;;;-2.04;58.95;97824.88;4911350;29;20053;-63
2022/03/27 07:45:14;;;;;;;1.35;1.00;;;;;;;-1.57;57.17;97813.00;4913147;29;20174;-64
2022/03/27 07:47:41;;;;;;;3.08;1.83;;;;;;;-1.39;55.30;97836.69;4915436;29;20090;-65
2022/03/27 07:50:08;;;;;;;2.30;0.68;;;;;;;-1.38;55.11;97821.16;4915023;29;20086;-63
2022/03/27 07:52:36;;;;;;;1.65;1.02;;;;;;;-1.83;57.26;97830.03;4915404;29;20056;-64
2022/03/27 07:55:05;;;;;;;2.63;1.15;;;;;;;-1.99;58.46;97822.09;4913819;29;20076;-64
2022/03/27 07:57:32;;;;;;;6.93;0.95;;;;;;;-2.30;57.63;97848.13;4915700;29;20087;-64
2022/03/27 07:59:59;;;;;;;4.35;1.48;;;;;;;-2.39;57.96;97868.91;4915249;29;20143;-64
2022/03/27 08:02:26;;;;;;;3.38;1.10;;;;;;;-1.85;55.69;97868.47;4916232;29;20131;-65
2022/03/27 08:04:53;;;;;;;3.67;1.15;;;;;;;-2.09;56.81;97865.81;4915382;29;20553;-63
2022/03/27 08:07:21;;;;;;;1.80;1.00;;;;;;;-1.92;55.80;97859.88;4915906;29;20052;-64
2022/03/27 08:09:48;;;;;;;7.15;1.13;;;;;;;-2.17;55.25;97874.63;4915564;29;20080;-64
2022/03/27 08:12:17;;;;;;;5.55;0.90;;;;;;;-2.52;55.27;97883.19;4915003;29;20080;-64
2022/03/27 08:14:46;;;;;;;0.98;0.75;;;;;;;-2.63;55.29;97887.13;4911124;29;20061;-64
2022/03/27 08:17:13;;;;;;;5.00;1.00;;;;;;;-2.56;54.89;97876.72;4914855;29;20060;-63
2022/03/27 08:19:41;;;;;;;1.00;0.80;;;;;;;-2.45;56.25;97878.25;4915316;29;20147;-63
2022/03/27 08:22:08;;;;;;;2.45;0.90;;;;;;;-2.37;54.27;97865.91;4915323;29;20076;-64
2022/03/27 08:24:36;;;;;;;0.60;0.60;;;;;;;-2.39;54.42;97866.19;4910478;29;20060;-66
2022/03/27 08:27:04;;;;;;;1.73;1.00;;;;;;;-2.63;60.12;97892.56;4915714;29;20060;-64
2022/03/27 08:29:36;;;;;;;3.50;1.33;;;;;;;-2.63;60.49;97891.78;4915341;29;20131;-64
2022/03/27 08:32:06;;;;;;;1.60;0.90;;;;;;;-2.78;58.66;97906.31;4915178;29;20086;-63
2022/03/27 08:34:37;;;;;;;10.10;1.23;;;;;;;-2.84;58.43;97907.47;4915559;29;20052;-64
2022/03/27 08:37:06;;;;;;;5.03;0.95;;;;;;;-2.82;59.45;97909.91;4915254;29;20052;-64
2022/03/27 08:39:34;;;;;;;2.03;1.08;;;;;;;-2.44;59.26;97920.69;4913880;29;20082;-65
2022/03/27 08:42:02;;;;;;;3.78;0.80;;;;;;;-2.10;58.58;97926.81;4915159;29;20052;-64
2022/03/27 08:44:30;;;;;;;4.20;1.15;;;;;;;-1.69;57.15;97920.88;4915282;29;20056;-64
2022/03/27 08:46:58;;;;;;;1.75;1.10;;;;;;;-1.55;55.17;97925.28;4914790;29;20060;-63
2022/03/27 08:49:47;;;;;;;2.25;0.70;;;;;;;-1.26;54.80;97931.41;4915649;29;20052;-64
2022/03/27 08:52:17;;;;;;;1.92;1.10;;;;;;;-1.17;53.10;97928.81;4910655;29;20100;-64
2022/03/27 08:54:59;;;;;;;5.28;1.38;;;;;;;-1.05;52.83;97899.16;4906986;29;20456;-64
2022/03/27 08:57:29;;;;;;;4.50;1.13;;;;;;;-1.31;52.74;97892.47;4915475;29;20087;-64
2022/03/27 08:59:58;;;;;;;3.33;0.82;;;;;;;-1.67;51.84;97929.53;4915179;29;20076;-64
2022/03/27 09:02:25;;;;;;;0.70;0.70;;;;;;;-1.95;52.85;97953.09;4915227;29;20086;-64
2022/03/27 09:04:54;;;;;;;2.40;1.00;;;;;;;-2.34;55.55;97949.72;4915529;29;20608;-65
2022/03/27 09:07:31;;;;;;;1.98;1.08;;;;;;;-2.40;56.93;97957.13;4914803;29;20079;-64
2022/03/27 09:09:58;;;;;;;5.25;1.30;;;;;;;-2.63;59.19;97979.66;4916903;29;20060;-65
2022/03/27 09:12:25;;;;;;;1.50;1.08;;;;;;;-2.62;60.08;97969.59;4918425;29;20044;-65
2022/03/27 09:14:52;;;;;;;2.58;1.08;;;;;;;-2.51;60.03;97974.66;4918651;29;20416;-64
2022/03/27 09:17:19;;;;;;;4.57;1.25;;;;;;;-2.32;59.19;97991.06;4916946;29;20143;-64
2022/03/27 09:19:51;;;;;;;2.95;0.75;;;;;;;-2.26;58.45;97993.47;4918612;29;20618;-64
2022/03/27 09:22:27;;;;;;;1.70;0.85;;;;;;;-2.51;58.64;97979.28;4916613;29;20130;-64
2022/03/27 09:24:59;;;;;;;1.60;1.08;;;;;;;-2.30;57.61;98005.22;4911624;29;20056;-65
2022/03/27 09:27:37;;;;;;;1.50;1.00;;;;;;;-0.52;53.23;97996.00;4918057;29;20060;-65
2022/03/27 09:30:07;;;;;;;2.17;0.98;;;;;;;-0.78;52.53;97978.41;4918022;29;20495;-63
2022/03/27 09:32:42;;;;;;;12.18;10.07;;;;;;;-1.49;54.53;97995.00;4932215;29;20048;-65
2022/03/27 09:35:14;;;;;;;7.35;3.03;;;;;;;-1.99;56.58;98020.94;4913703;29;20446;-62
2022/03/27 09:37:46;;;;;;;2.70;1.40;;;;;;;-2.33;59.40;98022.94;4918658;29;20051;-62
2022/03/27 09:40:16;;;;;;;2.88;1.35;;;;;;;-2.16;59.67;98011.63;4916347;29;20524;-62
2022/03/27 09:42:43;;;;;;;2.03;1.10;;;;;;;-1.90;57.98;98026.56;4918152;29;20040;-62
2022/03/27 09:45:21;;;;;;;1.40;0.93;;;;;;;-1.51;56.58;98020.94;4917380;29;20060;-64
2022/03/27 09:47:51;;;;;;;4.47;0.95;;;;;;;-1.67;55.20;98009.41;4915254;29;20090;-64
2022/03/27 09:50:37;;;;;;;8.88;1.08;;;;;;;-2.13;57.34;98025.44;4917755;29;20082;-65
2022/03/27 09:53:27;;;;;;;3.10;1.40;;;;;;;-2.26;58.43;98044.38;4900923;29;20508;-65
2022/03/27 09:56:12;;;;;;;1.92;1.00;;;;;;;-1.68;56.29;98036.97;4917435;29;20490;-65
2022/03/27 09:58:46;;;;;;;1.00;0.82;;;;;;;-1.02;53.12;98035.81;4917169;29;20048;-66
2022/03/27 10:01:20;;;;;;;1.75;1.13;;;;;;;-1.09;52.92;98048.19;4913704;29;20040;-65
2022/03/27 10:03:57;;;;;;;1.73;0.98;;;;;;;-1.34;53.29;98051.25;4917612;29;20060;-63
2022/03/27 10:06:39;;;;;;;1.38;0.90;;;;;;;-1.93;55.02;98051.66;4917579;29;20090;-64
2022/03/27 10:09:08;;;;;;;0.95;0.70;;;;;;;-2.48;60.28;98061.19;4917211;29;20468;-64
2022/03/27 10:11:37;;;;;;;4.97;1.55;;;;;;;-2.85;65.88;98081.88;4917321;29;20044;-64
2022/03/27 10:14:05;;;;;;;4.80;1.45;;;;;;;-3.00;70.04;98080.06;4916241;29;20071;-64
2022/03/27 10:16:41;;;;;;;7.28;3.00;;;;;;;-2.86;68.46;98050.31;4917264;29;20052;-63
2022/03/27 10:19:33;;;;;;;2.35;0.98;;;;;;;-2.78;69.44;98083.19;4917284;29;20052;-62
2022/03/27 10:22:06;;;;;;;7.18;1.10;;;;;;;-2.64;70.42;98069.75;4917415;29;20407;-63
2022/03/27 10:24:34;;;;;;;4.03;1.65;;;;;;;-2.67;69.55;98097.53;4913811;29;20056;-63
2022/03/27 10:27:02;;;;;;;2.88;1.30;;;;;;;-2.32;67.27;98100.81;4917152;29;20102;-63
2022/03/27 10:29:29;;;;;;;3.40;1.00;;;;;;;-2.10;65.32;98071.19;4916910;29;20075;-63
2022/03/27 10:31:59;;;;;;;1.50;1.00;;;;;;;-2.50;62.68;98097.94;4917043;29;20463;-62
2022/03/27 10:34:29;;;;;;;1.95;1.50;;;;;;;-2.35;62.71;98101.38;4916174;29;20060;-62
2022/03/27 10:36:56;;;;;;;0.90;0.73;;;;;;;-2.28;59.52;98107.28;4917327;29;20499;-65
2022/03/27 10:39:52;;;;;;;1.63;0.90;;;;;;;-2.32;61.16;98117.13;4916921;29;20062;-62
2022/03/27 10:42:45;;;;;;;3.40;1.40;;;;;;;-2.22;60.53;98121.69;4915186;29;20550;-63
2022/03/27 10:45:18;;;;;;;1.08;0.75;;;;;;;-2.35;59.45;98135.94;4910429;29;20091;-63
2022/03/27 10:48:07;;;;;;;2.15;1.05;;;;;;;-2.31;60.28;98123.41;4916595;29;20056;-63
2022/03/27 10:50:55;;;;;;;1.83;1.00;;;;;;;-2.41;60.97;98135.19;4916204;29;20534;-62
2022/03/27 10:53:25;;;;;;;2.65;1.13;;;;;;;-2.49;61.78;98129.53;4917199;29;20107;-62
2022/03/27 10:55:54;;;;;;;2.03;1.15;;;;;;;-2.39;61.55;98153.97;4916240;29;20058;-64
2022/03/27 10:58:39;;;;;;;3.65;1.27;;;;;;;-2.59;61.96;98163.06;4915226;29;20066;-63
2022/03/27 11:01:26;;;;;;;2.47;1.10;;;;;;;-2.28;62.50;98156.31;4916455;29;20056;-64
2022/03/27 11:04:11;;;;;;;7.03;1.10;;;;;;;-2.29;63.05;98168.31;4915871;29;20139;-63
2022/03/27 11:06:39;;;;;;;3.53;1.20;;;;;;;-2.42;64.42;98173.56;4916729;29;20075;-63
2022/03/27 11:09:08;;;;;;;1.52;0.80;;;;;;;-2.43;62.59;98186.38;4916210;29;20428;-63
2022/03/27 11:11:35;;;;;;;3.67;1.10;;;;;;;-2.57;63.52;98174.50;4916507;29;20082;-63
2022/03/27 11:14:03;;;;;;;7.03;1.58;;;;;;;-2.62;64.75;98198.19;4916321;29;20142;-63
2022/03/27 11:16:30;;;;;;;1.77;1.10;;;;;;;-2.57;63.86;98188.13;4916547;29;20063;-62
2022/03/27 11:18:59;;;;;;;4.18;1.08;;;;;;;-2.54;63.89;98171.22;4915881;29;20456;-63
2022/03/27 11:21:29;;;;;;;1.48;1.00;;;;;;;-2.40;60.83;98185.81;4916188;29;20555;-63
2022/03/27 11:24:02;;;;;;;6.97;1.10;;;;;;;-2.16;59.65;98180.47;4915847;29;20119;-62
2022/03/27 11:26:32;;;;;;;5.75;1.40;;;;;;;-2.06;57.90;98197.56;4916261;29;20051;-62
2022/03/27 11:29:18;;;;;;;2.22;1.10;;;;;;;-2.05;58.12;98212.78;4915644;29;20052;-63
2022/03/27 11:32:06;;;;;;;2.35;1.20;;;;;;;-2.19;57.45;98222.69;4915779;29;20105;-63
2022/03/27 11:34:35;;;;;;;1.58;1.00;;;;;;;-2.33;58.13;98234.50;4915899;29;20047;-62
2022/03/27 11:37:22;;;;;;;11.30;3.47;;;;;;;-2.29;59.30;98239.09;4916231;29;20056;-62
2022/03/27 11:39:50;;;;;;;2.78;1.85;;;;;;;-2.26;59.53;98224.09;4913320;29;20083;-64
2022/03/27 11:42:32;;;;;;;2.63;1.08;;;;;;;-2.21;59.60;98232.25;4916104;29;20083;-63
2022/03/27 11:45:16;;;;;;;1.63;0.98;;;;;;;-2.17;59.08;98249.66;4914109;29;20139;-63
2022/03/27 11:47:52;;;;;;;1.13;0.68;;;;;;;-2.13;59.45;98243.34;4915299;29;20427;-62
2022/03/27 11:50:23;;;;;;;6.25;0.98;;;;;;;-2.05;59.18;98231.88;4911414;29;20473;-62
2022/03/27 11:52:50;;;;;;;6.75;1.00;;;;;;;-2.02;59.17;98223.13;4915260;29;20496;-62